createdAt,value
2023-02-24T00:07:40.722Z,15.53
2023-02-24T00:17:45.550Z,14.47
2023-02-24T00:27:56.656Z,14.70
2023-02-24T00:38:01.261Z,13.83
2023-02-24T00:48:05.360Z,16.63
2023-02-24T00:58:12.051Z,15.77
2023-02-24T01:08:21.404Z,15.40
2023-02-24T01:18:26.154Z,16.77
2023-02-24T01:28:28.914Z,16.50
2023-02-24T01:38:33.187Z,28.37
2023-02-24T01:48:36.287Z,38.57
2023-02-24T01:58:42.172Z,30.13
2023-02-24T02:08:46.094Z,23.83
2023-02-24T02:19:03.846Z,19.93
2023-02-24T02:29:34.763Z,16.07
2023-02-24T02:39:49.137Z,18.10
2023-02-24T02:49:57.359Z,20.50
2023-02-24T03:00:11.717Z,21.87
2023-02-24T03:10:21.246Z,23.67
2023-02-24T03:20:32.858Z,30.30
2023-02-24T03:30:44.077Z,33.90
2023-02-24T03:40:48.665Z,35.93
2023-02-24T03:51:00.730Z,32.27
2023-02-24T04:01:35.884Z,30.90
2023-02-24T04:11:46.158Z,28.63
2023-02-24T04:21:51.792Z,26.90
2023-02-24T04:32:03.478Z,26.60
2023-02-24T04:42:08.515Z,26.77
2023-02-24T04:52:11.875Z,27.13
2023-02-24T05:02:19.682Z,26.50
2023-02-24T05:12:22.999Z,24.33
2023-02-24T05:22:28.906Z,25.20
2023-02-24T05:32:35.541Z,22.80
2023-02-24T05:42:42.442Z,21.00
2023-02-24T06:16:16.510Z,18.87
2023-02-24T06:26:20.345Z,11.60
2023-02-24T06:36:24.560Z,7.77
2023-02-24T06:46:27.946Z,6.57
2023-02-24T06:56:38.650Z,5.40
2023-02-24T07:06:43.456Z,6.83
2023-02-24T07:16:52.695Z,6.43
2023-02-24T07:27:04.368Z,7.65
2023-02-24T07:37:12.452Z,7.03
2023-02-24T07:47:16.928Z,3.53
2023-02-24T07:57:27.624Z,3.07
2023-02-24T08:07:31.159Z,3.07
2023-02-24T08:17:36.263Z,3.93
2023-02-24T08:27:39.663Z,2.03
2023-02-24T08:37:47.890Z,4.10
2023-02-24T08:47:53.746Z,2.10
2023-02-24T08:58:02.030Z,3.53
2023-02-24T09:08:05.255Z,2.57
2023-02-24T09:18:14.382Z,1.80
2023-02-24T09:28:19.285Z,2.28
2023-02-24T09:38:46.649Z,3.10
2023-02-24T09:48:56.043Z,3.63
2023-02-24T09:59:12.754Z,2.67
2023-02-24T10:09:24.887Z,3.63
2023-02-24T10:19:34.318Z,4.23
2023-02-24T10:29:55.582Z,4.27
2023-02-24T10:40:10.118Z,3.13
2023-02-24T10:50:25.352Z,2.93
2023-02-24T11:00:51.989Z,2.77
2023-02-24T11:10:58.820Z,3.07
2023-02-24T11:21:05.712Z,3.23
2023-02-24T11:31:24.237Z,2.70
2023-02-24T11:41:34.397Z,2.90
2023-02-24T11:51:38.764Z,2.87
2023-02-24T12:01:49.413Z,2.20
2023-02-24T12:11:58.384Z,2.87
2023-02-24T12:22:07.820Z,2.13
2023-02-24T12:32:25.572Z,2.20
2023-02-24T12:42:38.206Z,2.90
2023-02-24T12:52:52.948Z,2.00
2023-02-24T13:03:08.243Z,2.63
2023-02-24T13:13:18.687Z,2.43
2023-02-24T13:23:23.539Z,2.60
2023-02-24T13:33:31.162Z,2.70
2023-02-24T13:43:35.724Z,2.53
2023-02-24T13:53:57.653Z,2.73
2023-02-24T14:04:15.466Z,2.83
2023-02-24T14:14:19.873Z,2.50
2023-02-24T14:24:24.586Z,2.57
2023-02-24T14:34:29.974Z,3.57
2023-02-24T14:44:35.812Z,4.77
2023-02-24T14:54:44.983Z,5.40
2023-02-24T15:04:49.966Z,7.17
2023-02-24T15:15:02.172Z,18.50
2023-02-24T15:25:24.075Z,7.67
2023-02-24T15:35:33.272Z,4.30
2023-02-24T15:45:40.136Z,3.70
2023-02-24T15:55:43.982Z,3.77
2023-02-24T16:05:48.561Z,4.00
2023-02-24T16:15:53.651Z,3.83
2023-02-24T16:25:59.458Z,5.07
2023-02-24T16:36:02.915Z,3.00
2023-02-24T16:46:14.022Z,3.73
2023-02-24T16:56:18.057Z,3.40
2023-02-24T17:06:23.537Z,3.50
2023-02-24T17:16:27.201Z,2.63
2023-02-24T17:26:31.822Z,4.20
2023-02-24T17:36:35.182Z,4.10
2023-02-24T17:46:39.837Z,4.70
2023-02-24T17:56:43.089Z,6.40
2023-02-24T18:06:47.403Z,7.60
2023-02-24T18:16:50.400Z,10.03
2023-02-24T18:26:55.204Z,9.63
2023-02-24T18:36:58.284Z,14.00
2023-02-24T18:47:03.011Z,11.57
2023-02-24T18:57:06.137Z,13.10
2023-02-24T19:07:10.658Z,12.27
2023-02-24T19:17:14.496Z,14.57
2023-02-24T19:27:18.907Z,11.37
2023-02-24T19:37:22.128Z,10.60
2023-02-24T19:47:26.422Z,8.73
2023-02-24T19:57:29.442Z,7.53
2023-02-24T20:07:34.769Z,4.00
2023-02-24T20:17:38.661Z,2.47
2023-02-24T20:27:42.989Z,5.50
2023-02-24T20:37:46.224Z,3.00
2023-02-24T20:47:51.157Z,3.10
2023-02-24T20:57:54.286Z,1.87
2023-02-24T21:07:58.755Z,2.40
2023-02-24T21:18:01.894Z,1.93
2023-02-24T21:28:06.463Z,1.93
2023-02-24T21:38:10.278Z,1.93
2023-02-24T21:48:14.900Z,1.37
2023-02-24T21:58:18.654Z,2.60
2023-02-24T22:08:23.206Z,3.47
2023-02-24T22:18:26.706Z,3.97
2023-02-24T22:28:31.895Z,2.30
2023-02-24T22:38:36.000Z,2.00
2023-02-24T22:48:41.454Z,3.07
2023-02-24T22:58:45.603Z,2.33
2023-02-24T23:08:51.284Z,2.63
2023-02-24T23:18:58.557Z,3.37
2023-02-24T23:29:04.675Z,2.10
2023-02-24T23:39:09.155Z,2.20
2023-02-24T23:49:14.662Z,3.00
2023-02-24T23:59:17.819Z,1.77
